createdAt,value
2018-06-23T00:01:50.067Z,5.53
2018-06-23T00:04:23.115Z,5.77
2018-06-23T00:06:56.152Z,4.40
2018-06-23T00:09:29.373Z,2.80
2018-06-23T00:12:02.455Z,3.77
2018-06-23T00:14:35.480Z,4.13
2018-06-23T00:17:08.527Z,9.37
2018-06-23T00:19:41.630Z,5.23
2018-06-23T00:22:14.662Z,6.40
2018-06-23T00:24:47.695Z,6.23
2018-06-23T00:27:20.838Z,5.27
2018-06-23T00:29:53.852Z,7.40
2018-06-23T00:32:26.861Z,4.73
2018-06-23T00:34:59.889Z,7.27
2018-06-23T00:37:32.915Z,9.37
2018-06-23T00:40:06.016Z,6.70
2018-06-23T00:42:39.023Z,5.27
2018-06-23T00:45:12.043Z,6.23
2018-06-23T00:47:45.062Z,4.17
2018-06-23T00:50:18.095Z,6.53
2018-06-23T00:52:51.107Z,13.27
2018-06-23T00:55:24.120Z,8.30
2018-06-23T00:57:57.144Z,9.43
2018-06-23T01:00:30.252Z,9.43
2018-06-23T01:03:03.262Z,6.93
2018-06-23T01:05:36.335Z,7.10
2018-06-23T01:08:09.476Z,9.83
2018-06-23T01:10:42.511Z,9.33
2018-06-23T01:13:15.495Z,7.87
2018-06-23T01:15:48.698Z,8.33
2018-06-23T01:18:22.631Z,10.13
2018-06-23T01:20:55.645Z,11.43
2018-06-23T01:23:28.704Z,7.80
2018-06-23T01:26:01.739Z,8.47
2018-06-23T01:28:34.906Z,12.10
2018-06-23T01:31:08.839Z,10.13
2018-06-23T01:33:41.863Z,13.70
2018-06-23T01:36:14.974Z,9.43
2018-06-23T01:38:47.993Z,10.33
2018-06-23T01:41:21.050Z,8.70
2018-06-23T01:43:54.086Z,11.17
2018-06-23T01:46:27.134Z,9.90
2018-06-23T01:49:00.251Z,8.50
2018-06-23T01:51:33.409Z,10.90
2018-06-23T01:54:06.448Z,9.23
2018-06-23T01:56:39.462Z,14.47
2018-06-23T01:59:12.463Z,16.93
2018-06-23T02:01:45.516Z,11.43
2018-06-23T02:04:18.321Z,17.00
2018-06-23T02:06:51.367Z,10.17
2018-06-23T02:09:24.699Z,14.70
2018-06-23T02:11:58.766Z,8.23
2018-06-23T02:14:36.998Z,12.27
2018-06-23T02:17:15.428Z,12.00
2018-06-23T02:19:53.812Z,6.40
2018-06-23T02:22:40.020Z,14.37
2018-06-23T02:25:18.333Z,8.10
2018-06-23T02:27:56.728Z,10.80
2018-06-23T02:30:35.026Z,9.73
2018-06-23T02:33:13.428Z,10.00
2018-06-23T02:35:46.443Z,8.20
2018-06-23T02:38:19.471Z,11.27
2018-06-23T02:40:52.491Z,14.23
2018-06-23T02:43:25.499Z,13.20
2018-06-23T02:45:58.508Z,14.30
2018-06-23T02:48:31.533Z,14.17
2018-06-23T02:51:04.531Z,13.00
2018-06-23T02:53:37.652Z,9.10
2018-06-23T02:56:10.679Z,13.73
2018-06-23T02:58:43.709Z,8.57
2018-06-23T03:01:17.295Z,9.70
2018-06-23T03:03:50.320Z,10.20
2018-06-23T03:06:23.323Z,15.03
2018-06-23T03:08:56.368Z,15.60
2018-06-23T03:11:29.388Z,14.83
2018-06-23T03:14:02.440Z,13.97
2018-06-23T03:16:35.643Z,7.07
2018-06-23T03:19:08.683Z,11.03
2018-06-23T03:21:41.689Z,11.73
2018-06-23T03:24:14.509Z,12.03
2018-06-23T03:26:47.545Z,13.67
2018-06-23T03:29:20.610Z,14.73
2018-06-23T03:31:54.013Z,11.47
2018-06-23T03:34:27.054Z,16.83
2018-06-23T03:37:00.064Z,13.60
2018-06-23T03:39:33.147Z,12.87
2018-06-23T03:42:06.270Z,13.17
2018-06-23T03:44:39.303Z,17.10
2018-06-23T03:47:12.315Z,13.37
2018-06-23T03:49:45.346Z,13.27
2018-06-23T03:52:18.352Z,14.27
2018-06-23T03:54:51.370Z,18.43
2018-06-23T03:57:24.264Z,15.53
2018-06-23T03:59:57.282Z,18.03
2018-06-23T04:02:30.293Z,19.37
2018-06-23T04:05:03.319Z,15.60
2018-06-23T04:07:36.367Z,16.90
2018-06-23T04:10:09.388Z,19.63
2018-06-23T04:12:42.406Z,16.77
2018-06-23T04:15:15.428Z,16.20
2018-06-23T04:17:48.453Z,17.67
2018-06-23T04:20:21.455Z,18.30
2018-06-23T04:22:54.551Z,14.07
2018-06-23T04:25:27.566Z,11.80
2018-06-23T04:28:00.566Z,13.30
2018-06-23T04:30:33.695Z,13.70
2018-06-23T04:33:06.753Z,11.30
2018-06-23T04:35:39.774Z,13.97
2018-06-23T04:38:12.754Z,14.87
2018-06-23T04:40:45.757Z,12.80
2018-06-23T04:43:18.746Z,17.57
2018-06-23T04:45:51.804Z,13.83
2018-06-23T04:48:24.826Z,11.47
2018-06-23T04:50:57.897Z,11.70
2018-06-23T04:53:32.391Z,14.53
2018-06-23T04:56:05.423Z,11.67
2018-06-23T04:58:38.560Z,13.87
2018-06-23T05:01:11.675Z,10.23
2018-06-23T05:03:44.813Z,13.10
2018-06-23T05:06:17.812Z,8.47
2018-06-23T05:08:50.826Z,11.67
2018-06-23T05:11:23.918Z,14.30
2018-06-23T05:13:56.919Z,11.40
2018-06-23T05:16:29.930Z,9.97
2018-06-23T05:19:02.919Z,8.93
2018-06-23T05:21:35.962Z,14.37
2018-06-23T05:24:09.424Z,11.33
2018-06-23T05:26:42.471Z,8.67
2018-06-23T05:29:15.455Z,9.73
2018-06-23T05:31:48.521Z,17.50
2018-06-23T05:34:21.492Z,35.10
2018-06-23T05:36:54.525Z,17.43
2018-06-23T05:39:27.557Z,17.53
2018-06-23T05:42:00.564Z,14.10
2018-06-23T05:44:33.573Z,15.07
2018-06-23T05:47:06.614Z,8.47
2018-06-23T05:49:39.607Z,11.93
2018-06-23T05:52:12.593Z,12.77
2018-06-23T05:54:45.611Z,17.70
2018-06-23T05:57:18.756Z,12.23
2018-06-23T05:59:51.758Z,15.67
2018-06-23T06:02:24.795Z,23.60
2018-06-23T06:04:57.830Z,11.60
2018-06-23T06:07:30.850Z,10.23
2018-06-23T06:10:04.077Z,11.20
2018-06-23T06:12:37.152Z,12.13
2018-06-23T06:15:10.217Z,18.17
2018-06-23T06:17:43.266Z,11.30
2018-06-23T06:20:16.655Z,11.53
2018-06-23T06:22:49.694Z,19.30
2018-06-23T06:25:22.741Z,13.70
2018-06-23T06:27:55.832Z,15.10
2018-06-23T06:30:28.859Z,10.80
2018-06-23T06:33:01.932Z,7.87
2018-06-23T06:35:34.986Z,11.23
2018-06-23T06:38:08.026Z,19.70
2018-06-23T06:40:41.037Z,11.57
2018-06-23T06:43:14.108Z,14.57
2018-06-23T06:45:47.187Z,10.83
2018-06-23T06:48:20.247Z,12.27
2018-06-23T06:50:53.245Z,8.40
2018-06-23T06:53:26.279Z,17.40
2018-06-23T06:55:59.310Z,7.07
2018-06-23T06:58:32.330Z,28.07
2018-06-23T07:01:05.511Z,6.93
2018-06-23T07:03:38.544Z,14.53
2018-06-23T07:06:11.550Z,12.90
2018-06-23T07:08:44.658Z,14.07
2018-06-23T07:11:17.737Z,9.53
2018-06-23T07:13:51.027Z,11.50
2018-06-23T07:16:24.419Z,14.77
2018-06-23T07:18:57.470Z,5.77
2018-06-23T07:21:30.746Z,10.90
2018-06-23T07:24:05.870Z,6.33
2018-06-23T07:26:38.860Z,6.13
2018-06-23T07:29:11.883Z,7.27
2018-06-23T07:31:44.920Z,12.80
2018-06-23T07:34:18.974Z,7.80
2018-06-23T07:36:52.030Z,7.43
2018-06-23T07:39:25.078Z,9.07
2018-06-23T07:41:58.099Z,5.67
2018-06-23T07:44:31.113Z,8.73
2018-06-23T07:47:04.119Z,7.33
2018-06-23T07:49:37.193Z,8.70
2018-06-23T07:52:10.203Z,7.23
2018-06-23T07:54:44.128Z,7.93
2018-06-23T07:57:17.171Z,5.77
2018-06-23T07:59:50.251Z,6.73
2018-06-23T08:02:23.530Z,6.90
2018-06-23T08:04:57.126Z,5.47
2018-06-23T08:07:30.159Z,9.87
2018-06-23T08:10:03.183Z,6.90
2018-06-23T08:12:36.174Z,5.73
2018-06-23T08:15:15.702Z,6.03
2018-06-23T08:17:48.772Z,9.10
2018-06-23T08:20:22.823Z,10.17
2018-06-23T08:22:55.889Z,2.30
2018-06-23T08:25:28.952Z,7.23
2018-06-23T08:28:01.988Z,7.47
2018-06-23T08:30:35.325Z,3.60
2018-06-23T08:33:08.338Z,3.90
2018-06-23T08:35:41.506Z,11.33
2018-06-23T08:38:14.519Z,4.70
2018-06-23T08:40:47.580Z,8.50
2018-06-23T08:43:20.699Z,6.50
2018-06-23T08:45:54.013Z,3.87
2018-06-23T08:48:27.506Z,3.73
2018-06-23T08:51:00.718Z,6.13
2018-06-23T08:53:33.747Z,7.03
2018-06-23T08:56:06.779Z,4.67
2018-06-23T08:58:39.791Z,6.23
2018-06-23T09:01:12.855Z,7.27
2018-06-23T09:03:45.915Z,4.63
2018-06-23T09:06:18.966Z,5.00
2018-06-23T09:08:52.083Z,4.87
2018-06-23T09:11:25.137Z,5.20
2018-06-23T09:13:58.212Z,5.33
2018-06-23T09:16:32.241Z,5.60
2018-06-23T09:19:05.387Z,4.97
2018-06-23T09:21:38.465Z,3.13
2018-06-23T09:24:11.585Z,2.60
2018-06-23T09:26:44.619Z,5.50
2018-06-23T09:29:17.799Z,7.07
2018-06-23T09:31:50.834Z,2.93
2018-06-23T09:34:23.907Z,5.90
2018-06-23T09:36:57.018Z,4.63
2018-06-23T09:39:30.036Z,3.60
2018-06-23T09:42:03.067Z,2.20
2018-06-23T09:44:36.066Z,5.67
2018-06-23T09:47:09.091Z,3.00
2018-06-23T09:49:42.134Z,7.50
2018-06-23T09:52:15.162Z,4.73
2018-06-23T09:54:48.182Z,4.20
2018-06-23T09:57:21.220Z,7.10
2018-06-23T09:59:54.235Z,6.90
2018-06-23T10:02:27.286Z,5.07
2018-06-23T10:05:00.342Z,3.07
2018-06-23T10:07:33.379Z,4.93
2018-06-23T10:10:06.426Z,4.40
2018-06-23T10:12:39.435Z,5.07
2018-06-23T10:15:12.428Z,2.97
2018-06-23T10:17:45.431Z,10.93
2018-06-23T10:20:18.494Z,4.20
2018-06-23T10:22:51.503Z,4.97
2018-06-23T10:25:24.655Z,6.07
2018-06-23T10:27:57.699Z,4.60
2018-06-23T10:30:30.692Z,3.03
2018-06-23T10:33:03.723Z,6.80
2018-06-23T10:35:36.713Z,5.67
2018-06-23T10:38:09.710Z,6.17
2018-06-23T10:40:42.847Z,4.80
2018-06-23T10:43:15.886Z,4.03
2018-06-23T10:45:48.963Z,5.50
2018-06-23T10:48:21.998Z,3.67
2018-06-23T10:50:54.986Z,3.60
2018-06-23T10:53:28.018Z,3.07
2018-06-23T10:56:01.019Z,4.67
2018-06-23T10:58:34.021Z,2.47
2018-06-23T11:01:07.366Z,2.20
2018-06-23T11:03:40.483Z,2.63
2018-06-23T11:06:13.489Z,3.40
2018-06-23T11:08:46.559Z,3.23
2018-06-23T11:11:19.586Z,2.63
2018-06-23T11:13:52.599Z,3.50
2018-06-23T11:16:25.610Z,3.23
2018-06-23T11:18:58.607Z,2.07
2018-06-23T11:21:31.593Z,1.07
2018-06-23T11:24:04.639Z,2.93
2018-06-23T11:26:37.634Z,3.37
2018-06-23T11:29:10.671Z,7.03
2018-06-23T11:31:43.711Z,3.60
2018-06-23T11:34:16.734Z,0.73
2018-06-23T11:36:49.558Z,3.57
2018-06-23T11:39:22.565Z,1.80
2018-06-23T11:41:55.563Z,3.37
2018-06-23T11:44:28.571Z,3.10
2018-06-23T11:47:01.605Z,3.47
2018-06-23T11:49:34.620Z,1.37
2018-06-23T11:52:07.639Z,5.37
2018-06-23T11:54:40.634Z,1.67
2018-06-23T11:57:13.749Z,2.83
2018-06-23T11:59:46.803Z,4.27
2018-06-23T12:02:19.798Z,17.80
2018-06-23T12:04:52.867Z,1.10
2018-06-23T12:07:25.861Z,3.50
2018-06-23T12:09:58.923Z,4.80
2018-06-23T12:12:31.970Z,1.20
2018-06-23T12:15:05.051Z,12.47
2018-06-23T12:17:38.114Z,3.13
2018-06-23T12:20:11.324Z,3.00
2018-06-23T12:22:44.311Z,1.73
2018-06-23T12:25:17.392Z,2.60
2018-06-23T12:27:50.415Z,3.53
2018-06-23T12:30:23.480Z,3.43
2018-06-23T12:32:56.487Z,1.17
2018-06-23T12:35:29.567Z,2.77
2018-06-23T12:38:02.568Z,2.13
2018-06-23T12:40:35.624Z,4.90
2018-06-23T12:43:08.638Z,2.27
2018-06-23T12:45:41.643Z,2.43
2018-06-23T12:48:14.670Z,3.67
2018-06-23T12:50:47.776Z,2.87
2018-06-23T12:53:20.788Z,7.97
2018-06-23T12:55:54.196Z,5.30
2018-06-23T12:58:27.079Z,4.20
2018-06-23T13:01:00.155Z,3.53
2018-06-23T13:03:33.194Z,3.87
2018-06-23T13:06:06.240Z,5.63
2018-06-23T13:08:39.371Z,4.63
2018-06-23T13:11:12.536Z,2.93
2018-06-23T13:13:45.570Z,4.73
2018-06-23T13:16:18.683Z,5.97
2018-06-23T13:18:51.751Z,3.57
2018-06-23T13:21:24.864Z,4.70
2018-06-23T13:23:57.932Z,5.07
2018-06-23T13:26:30.968Z,5.07
2018-06-23T13:29:04.020Z,5.70
2018-06-23T13:31:37.154Z,4.33
2018-06-23T13:34:10.818Z,3.47
2018-06-23T13:36:43.838Z,4.07
2018-06-23T13:39:29.213Z,2.80
2018-06-23T13:42:02.378Z,2.57
2018-06-23T13:44:35.578Z,3.23
2018-06-23T13:47:09.126Z,4.97
2018-06-23T13:49:42.107Z,2.50
2018-06-23T13:52:15.194Z,3.67
2018-06-23T13:54:48.326Z,3.90
2018-06-23T13:57:21.427Z,4.30
2018-06-23T13:59:55.007Z,5.93
2018-06-23T14:02:28.254Z,5.13
2018-06-23T14:05:01.403Z,4.87
2018-06-23T14:07:34.522Z,4.70
2018-06-23T14:10:07.936Z,3.27
2018-06-23T14:12:40.977Z,3.03
2018-06-23T14:15:14.111Z,4.67
2018-06-23T14:17:47.568Z,2.10
2018-06-23T14:20:20.989Z,4.20
2018-06-23T14:22:54.418Z,6.73
2018-06-23T14:25:27.482Z,3.70
2018-06-23T14:28:00.526Z,5.63
2018-06-23T14:30:33.566Z,3.13
2018-06-23T14:33:08.754Z,1.67
2018-06-23T14:35:41.971Z,8.70
2018-06-23T14:38:15.059Z,4.93
2018-06-23T14:40:48.078Z,5.43
2018-06-23T14:43:21.166Z,6.00
2018-06-23T14:45:54.023Z,4.00
2018-06-23T14:48:27.200Z,6.80
2018-06-23T14:51:00.614Z,2.87
2018-06-23T14:53:33.798Z,8.50
2018-06-23T14:56:06.844Z,14.43
2018-06-23T14:58:40.049Z,6.90
2018-06-23T15:01:13.050Z,5.97
2018-06-23T15:03:46.067Z,4.23
2018-06-23T15:06:18.936Z,6.17
2018-06-23T15:11:08.511Z,2.87
2018-06-23T15:13:41.551Z,8.73
2018-06-23T15:16:14.554Z,5.80
2018-06-23T15:18:47.655Z,9.40
2018-06-23T15:21:21.582Z,18.50
2018-06-23T15:23:54.658Z,5.43
2018-06-23T15:26:27.862Z,9.03
2018-06-23T15:29:01.303Z,6.83
2018-06-23T15:31:34.318Z,16.30
2018-06-23T15:34:07.682Z,6.07
2018-06-23T15:36:41.690Z,9.70
2018-06-23T15:39:14.924Z,12.90
2018-06-23T15:41:48.400Z,2.90
2018-06-23T15:44:21.835Z,6.73
2018-06-23T15:46:54.937Z,7.73
2018-06-23T15:49:28.451Z,10.20
2018-06-23T15:52:01.470Z,9.67
2018-06-23T15:54:34.550Z,5.67
2018-06-23T15:57:08.052Z,31.03
2018-06-23T15:59:41.409Z,56.77
2018-06-23T16:02:14.755Z,21.80
2018-06-23T16:04:48.034Z,15.63
2018-06-23T16:07:21.290Z,28.03
2018-06-23T16:09:54.426Z,28.23
2018-06-23T16:12:27.666Z,20.17
2018-06-23T16:15:01.162Z,20.03
2018-06-23T16:17:34.188Z,14.30
2018-06-23T16:20:07.575Z,11.07
2018-06-23T16:22:41.131Z,14.77
2018-06-23T16:25:14.754Z,14.07
2018-06-23T16:27:47.805Z,4.33
2018-06-23T16:30:21.037Z,27.97
2018-06-23T16:32:54.518Z,8.23
2018-06-23T16:35:28.355Z,8.47
2018-06-23T16:38:01.440Z,20.97
2018-06-23T16:40:34.934Z,3.00
2018-06-23T16:43:08.014Z,6.73
2018-06-23T16:45:41.203Z,4.00
2018-06-23T16:48:14.606Z,9.23
2018-06-23T16:50:47.644Z,8.67
2018-06-23T16:53:20.754Z,4.67
2018-06-23T16:55:53.814Z,6.77
2018-06-23T16:58:26.854Z,10.63
2018-06-23T17:00:59.899Z,27.37
2018-06-23T17:03:32.933Z,6.27
2018-06-23T17:06:05.973Z,6.63
2018-06-23T17:08:38.985Z,7.50
2018-06-23T17:11:12.127Z,4.67
2018-06-23T17:13:46.615Z,4.17
2018-06-23T17:16:19.667Z,4.40
2018-06-23T17:18:52.719Z,6.30
2018-06-23T17:21:26.638Z,3.17
2018-06-23T17:24:00.002Z,4.73
2018-06-23T17:26:33.022Z,4.30
2018-06-23T17:29:06.046Z,4.40
2018-06-23T17:31:39.071Z,4.03
2018-06-23T17:34:12.092Z,3.30
2018-06-23T17:36:45.132Z,8.27
2018-06-23T17:39:18.144Z,4.83
2018-06-23T17:41:51.275Z,14.47
2018-06-23T17:44:24.278Z,19.67
2018-06-23T17:46:57.368Z,23.33
2018-06-23T17:49:30.391Z,8.30
2018-06-23T17:52:03.447Z,11.50
2018-06-23T17:54:36.486Z,7.13
2018-06-23T17:57:09.549Z,6.43
2018-06-23T17:59:42.578Z,10.03
2018-06-23T18:02:15.599Z,2.93
2018-06-23T18:04:48.639Z,3.60
2018-06-23T18:07:21.689Z,3.50
2018-06-23T18:09:54.715Z,8.07
2018-06-23T18:12:27.747Z,7.27
2018-06-23T18:15:00.837Z,11.40
2018-06-23T18:17:33.865Z,4.70
2018-06-23T18:20:06.899Z,6.30
2018-06-23T18:22:39.922Z,3.63
2018-06-23T18:25:12.967Z,3.27
2018-06-23T18:27:46.008Z,5.77
2018-06-23T18:30:19.042Z,3.50
2018-06-23T18:32:52.123Z,2.47
2018-06-23T18:35:26.290Z,3.17
2018-06-23T18:37:59.333Z,2.37
2018-06-23T18:40:32.355Z,4.00
2018-06-23T18:43:05.418Z,5.03
2018-06-23T18:45:38.479Z,6.40
2018-06-23T18:48:11.535Z,1.90
2018-06-23T18:50:44.526Z,4.37
2018-06-23T18:53:17.581Z,4.80
2018-06-23T18:55:50.584Z,2.33
2018-06-23T18:58:23.620Z,3.77
2018-06-23T19:01:03.507Z,5.53
2018-06-23T19:03:36.562Z,6.50
2018-06-23T19:06:09.602Z,3.00
2018-06-23T19:08:43.170Z,4.60
2018-06-23T19:11:16.206Z,4.40
2018-06-23T19:13:49.286Z,2.50
2018-06-23T19:16:22.451Z,3.10
2018-06-23T19:18:55.568Z,1.97
2018-06-23T19:21:28.628Z,3.77
2018-06-23T19:24:01.789Z,3.93
2018-06-23T19:26:34.844Z,3.33
2018-06-23T19:29:07.931Z,3.97
2018-06-23T19:31:40.983Z,3.20
2018-06-23T19:34:14.087Z,5.73
2018-06-23T19:36:47.297Z,7.17
2018-06-23T19:39:20.358Z,2.50
2018-06-23T19:41:53.395Z,2.00
2018-06-23T19:44:26.451Z,2.07
2018-06-23T19:46:59.645Z,9.03
2018-06-23T19:49:32.699Z,2.17
2018-06-23T19:52:05.789Z,1.93
2018-06-23T19:54:38.951Z,1.40
2018-06-23T19:57:11.987Z,4.03
2018-06-23T19:59:45.062Z,1.47
2018-06-23T20:02:18.098Z,12.40
2018-06-23T20:04:51.326Z,3.00
2018-06-23T20:07:24.455Z,1.53
2018-06-23T20:09:57.531Z,2.47
2018-06-23T20:12:30.554Z,1.07
2018-06-23T20:15:03.600Z,1.67
2018-06-23T20:17:36.642Z,3.37
2018-06-23T20:20:09.669Z,1.27
2018-06-23T20:22:43.611Z,2.37
2018-06-23T20:25:16.901Z,1.67
2018-06-23T20:27:50.112Z,4.93
2018-06-23T20:30:23.498Z,1.67
2018-06-23T20:32:56.579Z,1.60
2018-06-23T20:35:29.717Z,1.30
2018-06-23T20:38:03.289Z,1.53
2018-06-23T20:40:36.315Z,1.80
2018-06-23T20:43:09.327Z,4.97
2018-06-23T20:45:42.603Z,1.27
2018-06-23T20:48:16.025Z,1.63
2018-06-23T20:50:53.044Z,1.03
2018-06-23T20:53:26.198Z,1.03
2018-06-23T20:55:59.734Z,2.33
2018-06-23T20:58:32.951Z,1.43
2018-06-23T21:01:06.536Z,1.00
2018-06-23T21:03:39.978Z,3.13
2018-06-23T21:06:13.113Z,3.50
2018-06-23T21:08:46.305Z,1.20
2018-06-23T21:11:19.711Z,2.50
2018-06-23T21:13:52.900Z,8.53
2018-06-23T21:16:26.439Z,1.20
2018-06-23T21:19:00.131Z,1.20
2018-06-23T21:21:33.271Z,1.13
2018-06-23T21:24:06.827Z,2.20
2018-06-23T21:26:40.436Z,1.30
2018-06-23T21:29:13.711Z,1.50
2018-06-23T21:31:47.322Z,2.10
2018-06-23T21:34:20.315Z,2.70
2018-06-23T21:36:53.502Z,2.23
2018-06-23T21:39:26.925Z,3.47
2018-06-23T21:42:00.042Z,1.50
2018-06-23T21:44:33.078Z,2.03
2018-06-23T21:47:06.686Z,2.90
2018-06-23T21:49:39.714Z,2.63
2018-06-23T21:52:12.730Z,3.23
2018-06-23T21:54:45.751Z,1.93
2018-06-23T21:57:18.766Z,1.20
2018-06-23T21:59:51.782Z,1.53
2018-06-23T22:02:24.911Z,1.77
2018-06-23T22:04:57.912Z,1.97
2018-06-23T22:07:31.004Z,1.67
2018-06-23T22:10:04.075Z,2.73
2018-06-23T22:12:37.123Z,2.50
2018-06-23T22:15:10.157Z,1.87
2018-06-23T22:17:43.302Z,2.87
2018-06-23T22:20:16.374Z,3.67
2018-06-23T22:22:50.336Z,1.57
2018-06-23T22:25:23.979Z,1.40
2018-06-23T22:27:57.068Z,2.00
2018-06-23T22:30:30.090Z,3.00
2018-06-23T22:33:03.179Z,1.80
2018-06-23T22:35:36.204Z,1.87
2018-06-23T22:38:09.246Z,1.90
2018-06-23T22:40:42.278Z,1.53
2018-06-23T22:43:15.294Z,4.07
2018-06-23T22:45:48.310Z,2.53
2018-06-23T22:48:21.365Z,2.50
2018-06-23T22:50:54.379Z,4.10
2018-06-23T22:53:27.450Z,4.57
2018-06-23T22:56:00.501Z,2.17
2018-06-23T22:58:33.413Z,5.30
2018-06-23T23:01:06.624Z,3.63
2018-06-23T23:03:39.662Z,3.40
2018-06-23T23:06:12.723Z,3.27
2018-06-23T23:08:45.787Z,3.63
2018-06-23T23:11:18.815Z,4.10
2018-06-23T23:13:51.829Z,4.53
2018-06-23T23:16:24.898Z,5.20
2018-06-23T23:18:57.967Z,5.07
2018-06-23T23:21:31.018Z,4.53
2018-06-23T23:24:04.360Z,4.23
2018-06-23T23:26:37.679Z,5.63
2018-06-23T23:29:10.772Z,5.67
2018-06-23T23:31:43.848Z,4.23
2018-06-23T23:34:16.738Z,3.33
2018-06-23T23:36:50.028Z,3.90
2018-06-23T23:39:23.062Z,5.70
2018-06-23T23:41:56.067Z,5.03
2018-06-23T23:44:29.115Z,6.30
2018-06-23T23:47:02.106Z,6.07
2018-06-23T23:49:35.223Z,2.90
2018-06-23T23:52:08.166Z,5.30
2018-06-23T23:54:41.202Z,3.03
2018-06-23T23:57:14.217Z,3.93
2018-06-23T23:59:47.249Z,6.23
